Home > Products > Valid Products > MTR

000
SAUS43 KEAX 260353
MTRCDJ
METAR KCDJ 260352Z AUTO 14004KT 00/M08 A3007 RMK AO1 SLP198
T00001083





000
SAUS43 KEAX 260253
MTRCDJ
METAR KCDJ 260252Z AUTO 14006KT 00/M09 A3009 RMK AO1 SLP207
T00001089 58006





000
SAUS43 KEAX 260153
MTRCDJ
METAR KCDJ 260152Z AUTO 16003KT M01/M09 A3010 RMK AO1 SLP210
T10061089





000
SAUS43 KEAX 260053
MTRCDJ
METAR KCDJ 260052Z AUTO 15003KT M01/M08 A3011 RMK AO1 SLP212
T10061083





000
SAUS43 KEAX 252353
MTRCDJ
METAR KCDJ 252352Z AUTO 16003KT 00/M08 A3011 RMK AO1 SLP213
T00001083 10044 20000 56008





000
SAUS43 KEAX 252253
MTRCDJ
METAR KCDJ 252252Z AUTO 17003KT 02/M09 A3011 RMK AO1 SLP213
T00171089





000
SAUS43 KEAX 252153
MTRCDJ
METAR KCDJ 252152Z AUTO 19006KT 04/M09 A3012 RMK AO1 SLP214
T00391094





000
SAUS43 KEAX 252153
MTRCDJ
METAR KCDJ 252152Z AUTO 19006KT 04/M09 A3012 RMK AO1 SLP214
T00391094





000
SAUS43 KEAX 252053
MTRCDJ
METAR KCDJ 252052Z AUTO 21006KT 04/M11 A3014 RMK AO1 SLP219
T00391106 56019





000
SAUS43 KEAX 251953
MTRCDJ
METAR KCDJ 251952Z AUTO 24007KT 03/M10 A3015 RMK AO1 SLP223
T00331100





000
SAUS43 KEAX 251853
MTRCDJ
METAR KCDJ 251852Z AUTO VRB04KT 03/M10 A3017 RMK AO1 SLP229
T00281100





000
SAUS43 KEAX 251753
MTRCDJ
METAR KCDJ 251752Z AUTO 26005KT 01/M09 A3020 RMK AO1 SLP240
T00111094 10011 21056 58004





000
SAUS43 KEAX 251653
MTRCDJ
METAR KCDJ 251652Z AUTO VRB03KT M01/M09 A3022 RMK AO1 SLP247
T10111094





000
SAUS43 KEAX 251653
MTRCDJ
METAR KCDJ 251652Z AUTO VRB03KT M01/M09 A3022 RMK AO1 SLP247
T10111094





000
SAUS43 KEAX 251553
MTRCDJ
METAR KCDJ 251552Z AUTO VRB03KT M02/M11 A3022 RMK AO1 SLP249
T10171106





000
SAUS43 KEAX 251453
MTRCDJ
METAR KCDJ 251452Z AUTO VRB05KT M03/M11 A3021 RMK AO1 SLP246
T10331106 51014





000
SAUS43 KEAX 251353
MTRCDJ
METAR KCDJ 251352Z AUTO VRB03KT M04/M11 A3019 RMK AO1 SLP241
T10441111





000
SAUS43 KEAX 251253
MTRCDJ
METAR KCDJ 251252Z AUTO 30005KT M05/M11 A3019 RMK AO1 SLP238
T10501106





000
SAUS43 KEAX 251153
MTRCDJ
METAR KCDJ 251152Z AUTO 31005KT M04/M10 A3017 RMK AO1 SLP231
T10441100 11011 21044 53013





000
SAUS43 KEAX 251053
MTRCDJ
METAR KCDJ 251052Z AUTO 31007KT M04/M09 A3015 RMK AO1 SLP226
T10391094





000
SAUS43 KEAX 251053
MTRCDJ
METAR KCDJ 251052Z AUTO 31007KT M04/M09 A3015 RMK AO1 SLP226
T10391094





000
SAUS43 KEAX 250953
MTRCDJ
METAR KCDJ 250952Z AUTO 28005KT M03/M09 A3014 RMK AO1 SLP221
T10331089





000
SAUS43 KEAX 250854
MTRCDJ
METAR KCDJ 250852Z AUTO 30005KT M03/M08 A3013 RMK AO1 SLP217
T10281083 53021





000
SAUS43 KEAX 250753
MTRCDJ
METAR KCDJ 250752Z AUTO 31007KT M02/M08 A3010 RMK AO1 SLP208
T10221083





000
SAUS43 KEAX 250653
MTRCDJ
METAR KCDJ 250652Z AUTO 31009G16KT M02/M07 A3007 RMK AO1 SLP198
T10171072





000
SAUS43 KEAX 250553
MTRCDJ
METAR KCDJ 250552Z AUTO 32010G20KT M01/M07 A3007 RMK AO1 SLP194
T10111072 10011 21017 400501017 53027





000
SAUS43 KEAX 250453
MTRCDJ
METAR KCDJ 250452Z AUTO 32011G18KT M01/M08 A3004 RMK AO1 SLP184
T10061078





000
SAUS43 KEAX 250353
MTRCDJ
METAR KCDJ 250352Z AUTO 31007KT 00/M07 A3001 RMK AO1 SLP176
T00001072





000
SAUS43 KEAX 250253
MTRCDJ
METAR KCDJ 250252Z AUTO 29006KT 00/M06 A2999 RMK AO1 SLP168
T00001061 53018





000
SAUS43 KEAX 250153
MTRCDJ
METAR KCDJ 250152Z AUTO 25003KT M01/M06 A2997 RMK AO1 SLP162
T10111056





000
SAUS43 KEAX 250053
MTRCDJ
METAR KCDJ 250052Z AUTO 00000KT 00/M06 A2994 RMK AO1 SLP152
T00001056





000
SAUS43 KEAX 242353
MTRCDJ
METAR KCDJ 242352Z AUTO 28007KT 01/M06 A2993 RMK AO1 SLP147
T00061056 10022 20006 53037





000
SAUS43 KEAX 242253
MTRCDJ
METAR KCDJ 242252Z AUTO 29010G18KT 01/M06 A2989 RMK AO1 SLP133
T00111056





000
SAUS43 KEAX 242153
MTRCDJ
METAR KCDJ 242152Z AUTO 29009G17KT 250V320 02/M05 A2985 RMK AO1
SLP119 T00171050





000
SAUS43 KEAX 242153
MTRCDJ
METAR KCDJ 242152Z AUTO 29009G17KT 250V320 02/M05 A2985 RMK AO1
SLP119 T00171050





000
SAUS43 KEAX 242053
MTRCDJ
METAR KCDJ 242052Z AUTO 29007G19KT 02/M05 A2982 RMK AO1 SLP108
T00171050 53030





000
SAUS43 KEAX 241953
MTRCDJ
METAR KCDJ 241952Z AUTO 28010G20KT 02/M05 A2979 RMK AO1 SLP099
T00171050





000
SAUS43 KEAX 241953
MTRCDJ
METAR KCDJ 241952Z AUTO 28010G20KT 02/M05 A2979 RMK AO1 SLP099
T00171050





000
SAUS43 KEAX 241853
MTRCDJ
METAR KCDJ 241852Z AUTO 30011G22KT 01/M06 A2975 RMK AO1 SLP085
T00111056





000
SAUS43 KEAX 241753
MTRCDJ
METAR KCDJ 241752Z AUTO 29011G19KT 250V320 02/M05 A2973 RMK AO1
SLP076 T00171050 10017 20000 51029





000
SAUS43 KEAX 241653
MTRCDJ
METAR KCDJ 241652Z AUTO 29012G20KT 01/M06 A2970 RMK AO1 SLP069
T00111056





000
SAUS43 KEAX 241553
MTRCDJ
METAR KCDJ 241552Z AUTO 30014G27KT 01/M06 A2968 RMK AO1 PK WND
32027/1552 SLP061 T00061061





000
SAUS43 KEAX 241453
MTRCDJ
METAR KCDJ 241452Z AUTO 30010G18KT 00/M06 A2964 RMK AO1 PK WND
29027/1404 SLP046 T00001056 51031





000
SAUS43 KEAX 241353
MTRCDJ
METAR KCDJ 241352Z AUTO 29011G19KT 01/M05 A2962 RMK AO1 SLP037
T00061050





000
SAUS43 KEAX 241254
MTRCDJ
METAR KCDJ 241252Z AUTO 29010G19KT 01/M04 A2957 RMK AO1 SLP023
T00061044 $





000
SAUS43 KEAX 241153
MTRCDJ
METAR KCDJ 241152Z AUTO 29008KT 01/M04 A2955 RMK AO1 SLP012 70098
T00111039 10050 20011 51020 $





000
SAUS43 KEAX 241053
MTRCDJ
METAR KCDJ 241052Z AUTO 29011G19KT 02/M04 A2953 RMK AO1 SLP006
T00171039 $





000
SAUS43 KEAX 240953
MTRCDJ
METAR KCDJ 240952Z AUTO 29013G25KT 02/M03 A2951 RMK AO1 PK WND
32027/0921 SLP997 T00221033 $





000
SAUS43 KEAX 240953
MTRCDJ
METAR KCDJ 240952Z AUTO 29013G25KT 02/M03 A2951 RMK AO1 PK WND
32027/0921 SLP997 T00221033 $





000
SAUS43 KEAX 240853
MTRCDJ
METAR KCDJ 240852Z AUTO 31015G25KT 02/M04 A2949 RMK AO1 PK WND
31031/0811 SLP989 T00221039 53020 $





000
SAUS43 KEAX 240753
MTRCDJ
METAR KCDJ 240752Z AUTO 31017G26KT 04/M01 A2945 RMK AO1 PK WND
32026/0752 SLP974 T00391011 $





000
SAUS43 KEAX 240653
MTRCDJ
METAR KCDJ 240652Z AUTO 32008G17KT 04/01 A2942 RMK AO1 SLP966
T00440006 $





000
SAUS43 KEAX 240553
MTRCDJ
METAR KCDJ 240552Z AUTO 32005KT 04/02 A2943 RMK AO1 PK WND
34026/0505 SLP967 60055 T00440022 10089 20039 401390039 51008 $





000
SAUS43 KEAX 240453
MTRCDJ
METAR KCDJ 240452Z AUTO 32011G24KT 04/02 A2942 RMK AO1 PK WND
33026/0404 SLP965 P0004 T00440022 $





000
SAUS43 KEAX 240353
MTRCDJ
METAR KCDJ 240352Z AUTO 33010G21KT 04/03 A2942 RMK AO1 PK WND
31028/0322 SLP965 P0019 T00440028 $





000
SAUS43 KEAX 240353
MTRCDJ
METAR KCDJ 240352Z AUTO 33010G21KT 04/03 A2942 RMK AO1 PK WND
31028/0322 SLP965 P0019 T00440028 $





000
SAUS43 KEAX 240253
MTRCDJ
METAR KCDJ 240252Z AUTO 32014G23KT 06/04 A2940 RMK AO1 PK WND
32029/0224 SLP958 P0030 60032 T00610044 53020





000
SAUS43 KEAX 240153
MTRCDJ
METAR KCDJ 240152Z AUTO 32008G19KT 290V350 07/06 A2937 RMK AO1 PK
WND 01027/0111 SLP948 P0002 T00720056





000
SAUS43 KEAX 240053
MTRCDJ
METAR KCDJ 240052Z AUTO 34010G19KT 08/06 A2935 RMK AO1 SLP940
T00780061





000
SAUS43 KEAX 232353
MTRCDJ
METAR KCDJ 232352Z AUTO 33008KT 09/08 A2934 RMK AO1 SLP936 60004
T00890078 10139 20089 55004





000
SAUS43 KEAX 232253
MTRCDJ
METAR KCDJ 232252Z AUTO 00000KT 13/12 A2933 RMK AO1 SLP931 T01280122





000
SAUS43 KEAX 232153
MTRCDJ
METAR KCDJ 232152Z AUTO 00000KT 13/12 A2934 RMK AO1 SLP936 P0001
T01330122





000
SAUS43 KEAX 232153
MTRCDJ
METAR KCDJ 232152Z AUTO 00000KT 13/12 A2934 RMK AO1 SLP936 P0001
T01330122





000
SAUS43 KEAX 232053
MTRCDJ
METAR KCDJ 232052Z AUTO 19004KT 13/12 A2935 RMK AO1 SLP939 60003
T01330122 56029





000
SAUS43 KEAX 231953
MTRCDJ
METAR KCDJ 231952Z AUTO 19005KT 13/13 A2936 RMK AO1 SLP942 P0001
T01330128





000
SAUS43 KEAX 231953
MTRCDJ
METAR KCDJ 231952Z AUTO 19005KT 13/13 A2936 RMK AO1 SLP942 P0001
T01330128





000
SAUS43 KEAX 231853
MTRCDJ
METAR KCDJ 231852Z AUTO VRB03KT 13/12 A2940 RMK AO1 SLP955 P0002
T01280122





000
SAUS43 KEAX 231753
MTRCDJ
METAR KCDJ 231752Z AUTO 17003KT 13/12 A2944 RMK AO1 SLP969 P0003
60039 T01280122 10128 20111 58030





000
SAUS43 KEAX 231653
MTRCDJ
METAR KCDJ 231652Z AUTO 17004KT 13/12 A2948 RMK AO1 SLP981 P0005
T01280122





000
SAUS43 KEAX 231553
MTRCDJ
METAR KCDJ 231552Z AUTO 00000KT 12/12 A2952 RMK AO1 SLP994 P0010
T01220117





000
SAUS43 KEAX 231553
MTRCDJ
METAR KCDJ 231552Z AUTO 00000KT 12/12 A2952 RMK AO1 SLP994 P0010
T01220117





000
SAUS43 KEAX 231453
MTRCDJ
METAR KCDJ 231452Z AUTO 15006KT 12/11 A2953 RMK AO1 SLP999 P0009
60021 T01220111 56018





000
SAUS43 KEAX 231353
MTRCDJ
METAR KCDJ 231352Z AUTO 15004KT 12/11 A2955 RMK AO1 SLP005 P0005
T01170106





000
SAUS43 KEAX 231253
MTRCDJ
METAR KCDJ 231252Z AUTO 15006KT 12/11 A2957 RMK AO1 SLP011 P0007
T01170106





000
SAUS43 KEAX 231153
MTRCDJ
METAR KCDJ 231152Z AUTO 14007KT 12/11 A2959 RMK AO1 SLP017 P0005
60009 70013 T01170106 10128 20117 56024





000
SAUS43 KEAX 231053
MTRCDJ
METAR KCDJ 231052Z AUTO 15006KT 12/11 A2961 RMK AO1 SLP024 P0004
T01170106





000
SAUS43 KEAX 230953
MTRCDJ
METAR KCDJ 230952Z AUTO 16008KT 12/10 A2963 RMK AO1 SLP029 T01220100





000
SAUS43 KEAX 230953
MTRCDJ
METAR KCDJ 230952Z AUTO 16008KT 12/10 A2963 RMK AO1 SLP029 T01220100





000
SAUS43 KEAX 230853
MTRCDJ
METAR KCDJ 230852Z AUTO 17006KT 12/10 A2966 RMK AO1 SLP041 T01220100
56022





000
SAUS43 KEAX 230757 COR
MTRCDJ
METAR KCDJ 230752Z AUTO 17007KT 12/10 A2968 RMK AO1 SLP048 T01220100





000
SAUS43 KEAX 230654
MTRCDJ
METAR KCDJ 230652Z AUTO 15008KT 12/10 A2970 RMK AO1 SLP055 T01220100





000
SAUS43 KEAX 230553
MTRCDJ
METAR KCDJ 230552Z AUTO 17007KT 13/10 A2972 RMK AO1 SLP064 60001
T01280100 10144 20122 401610072 58005





000
SAUS43 KEAX 230453
MTRCDJ
METAR KCDJ 230452Z AUTO 18009KT 13/10 A2974 RMK AO1 SLP069 T01330100





    US Dept of Commerce
    National Oceanic and Atmospheric Administration
    National Weather Service
    1325 East West Highway
    Silver Spring, MD 20910
    Page Author: NWS Internet Services Team
Disclaimer
Information Quality
Credits
Glossary
Privacy Policy
Freedom of Information Act (FOIA)
About Us
Career Opportunities